Time;durP1;ratioP1;P1;durP2;ratioP2;P2;SDS_P1;SDS_P2;PMS_P1;PMS_P2;Temp;Humidity;BMP_temperature;BMP_pressure;BME280_temperature;BME280_humidity;BME280_pressure;Samples;Min_cycle;Max_cycle;Signal;HPM_P1;HPM_P2
2023/05/06 00:00:06;;;;;;;4.18;2.33;;;;;;;;;;5021857;28;20046;-59
2023/05/06 00:02:32;;;;;;;5.35;2.60;;;;;;;;;;5019273;28;20042;-59
2023/05/06 00:04:58;;;;;;;6.93;3.58;;;;;;;;;;5006414;28;20049;-59
2023/05/06 00:07:24;;;;;;;5.55;3.42;;;;;;;;;;5008702;28;20041;-59
2023/05/06 00:09:50;;;;;;;6.35;3.30;;;;;;;;;;5009879;28;20847;-59
2023/05/06 00:12:16;;;;;;;9.80;2.88;;;;;;;;;;5006674;28;20140;-59
2023/05/06 00:14:42;;;;;;;7.45;2.97;;;;;;;;;;5004938;28;20077;-59
2023/05/06 00:17:09;;;;;;;7.78;2.45;;;;;;;;;;5006923;28;20081;-59
2023/05/06 00:19:35;;;;;;;6.68;3.22;;;;;;;;;;5034208;28;20108;-59
2023/05/06 00:22:01;;;;;;;4.05;2.13;;;;;;;;;;5009396;28;20034;-59
2023/05/06 00:24:27;;;;;;;5.50;2.45;;;;;;;;;;5008285;28;20038;-59
2023/05/06 00:26:53;;;;;;;6.63;3.22;;;;;;;;;;5009545;28;20472;-59
2023/05/06 00:29:19;;;;;;;14.30;3.80;;;;;;;;;;5009341;28;20046;-59
2023/05/06 00:31:45;;;;;;;6.03;2.45;;;;;;;;;;5003875;28;20632;-59
2023/05/06 00:34:12;;;;;;;8.57;2.97;;;;;;;;;;5006753;28;20053;-59
2023/05/06 00:36:38;;;;;;;7.05;3.03;;;;;;;;;;5010362;28;20091;-59
2023/05/06 00:39:04;;;;;;;5.50;2.70;;;;;;;;;;5010535;28;20070;-59
2023/05/06 00:41:31;;;;;;;7.78;2.20;;;;;;;;;;5005059;28;20112;-59
2023/05/06 00:43:57;;;;;;;4.35;3.08;;;;;;;;;;5005727;28;20103;-59
2023/05/06 00:46:24;;;;;;;4.68;2.47;;;;;;;;;;5007576;28;20551;-59
2023/05/06 00:48:50;;;;;;;16.63;3.55;;;;;;;;;;5008240;28;20041;-59
2023/05/06 00:51:16;;;;;;;5.65;3.25;;;;;;;;;;4997723;28;20047;-59
2023/05/06 00:53:45;;;;;;;4.30;2.47;;;;;;;;;;5006705;28;20042;-59
2023/05/06 00:56:12;;;;;;;5.78;2.90;;;;;;;;;;5007117;28;20046;-59
2023/05/06 00:58:38;;;;;;;8.48;2.70;;;;;;;;;;5007682;28;20046;-59
2023/05/06 01:01:04;;;;;;;6.68;2.70;;;;;;;;;;5003846;28;20050;-59
2023/05/06 01:03:30;;;;;;;5.65;3.00;;;;;;;;;;5021597;28;20596;-59
2023/05/06 01:06:11;;;;;;;5.53;2.97;;;;;;;;;;5014532;28;20068;-59
2023/05/06 01:09:01;;;;;;;5.40;3.28;;;;;;;;;;5009131;28;20045;-61
2023/05/06 01:11:41;;;;;;;8.73;2.70;;;;;;;;;;5011277;28;20677;-61
2023/05/06 01:14:15;;;;;;;5.53;3.47;;;;;;;;;;5012757;28;20603;-61
2023/05/06 01:16:43;;;;;;;8.00;2.65;;;;;;;;;;5009023;28;20539;-62
2023/05/06 01:19:12;;;;;;;9.80;3.63;;;;;;;;;;5011656;28;20587;-61
2023/05/06 01:21:40;;;;;;;9.32;3.58;;;;;;;;;;5006435;28;20038;-61
2023/05/06 01:24:06;;;;;;;4.55;2.95;;;;;;;;;;5008711;28;20042;-62
2023/05/06 01:26:32;;;;;;;7.55;3.00;;;;;;;;;;5010383;28;20081;-61
2023/05/06 01:29:00;;;;;;;5.63;2.63;;;;;;;;;;5009256;28;20048;-62
2023/05/06 01:31:29;;;;;;;7.20;4.05;;;;;;;;;;5007702;28;20046;-61
2023/05/06 01:34:17;;;;;;;7.22;3.53;;;;;;;;;;5008277;28;20042;-61
2023/05/06 01:36:43;;;;;;;10.27;3.65;;;;;;;;;;5009539;28;20160;-61
2023/05/06 01:39:09;;;;;;;7.47;3.53;;;;;;;;;;5008223;28;20072;-61
2023/05/06 01:41:37;;;;;;;10.07;5.18;;;;;;;;;;5010147;28;20540;-61
2023/05/06 01:44:05;;;;;;;8.45;4.50;;;;;;;;;;5011729;28;20058;-61
2023/05/06 01:46:32;;;;;;;7.72;3.78;;;;;;;;;;5010794;28;20053;-61
2023/05/06 01:49:00;;;;;;;7.35;3.92;;;;;;;;;;5010869;28;20046;-61
2023/05/06 01:51:26;;;;;;;8.23;4.00;;;;;;;;;;5008948;28;20630;-61
2023/05/06 01:53:52;;;;;;;12.18;4.43;;;;;;;;;;5008012;28;20057;-61
2023/05/06 01:56:18;;;;;;;5.82;3.70;;;;;;;;;;5005880;28;20054;-61
2023/05/06 01:58:44;;;;;;;10.35;4.35;;;;;;;;;;5008897;28;20042;-61
2023/05/06 02:01:10;;;;;;;5.35;3.00;;;;;;;;;;5007033;28;20327;-61
2023/05/06 02:03:36;;;;;;;5.60;2.92;;;;;;;;;;5007877;28;20045;-61
2023/05/06 02:06:03;;;;;;;8.95;2.92;;;;;;;;;;5010120;28;20132;-61
2023/05/06 02:08:29;;;;;;;5.95;2.85;;;;;;;;;;5008636;28;20053;-61
2023/05/06 02:10:55;;;;;;;6.97;2.58;;;;;;;;;;5021770;28;20045;-61
2023/05/06 02:13:21;;;;;;;4.35;2.60;;;;;;;;;;5007936;28;20649;-61
2023/05/06 02:15:52;;;;;;;5.75;3.00;;;;;;;;;;5009321;28;20088;-61
2023/05/06 02:18:18;;;;;;;4.25;3.20;;;;;;;;;;5004491;28;20046;-61
2023/05/06 02:20:44;;;;;;;4.72;2.72;;;;;;;;;;5009545;28;20041;-61
2023/05/06 02:23:10;;;;;;;7.88;2.55;;;;;;;;;;5005065;28;20065;-61
2023/05/06 02:25:36;;;;;;;4.18;2.70;;;;;;;;;;5010044;28;20042;-61
2023/05/06 02:28:02;;;;;;;8.68;2.63;;;;;;;;;;5008489;28;20038;-61
2023/05/06 02:30:30;;;;;;;6.40;2.58;;;;;;;;;;5008534;28;20116;-61
2023/05/06 02:32:56;;;;;;;7.68;3.00;;;;;;;;;;5009645;28;20042;-61
2023/05/06 02:35:23;;;;;;;4.00;2.55;;;;;;;;;;5008596;28;20053;-61
2023/05/06 02:37:49;;;;;;;5.80;2.90;;;;;;;;;;5004571;28;20069;-61
2023/05/06 02:40:15;;;;;;;5.80;2.88;;;;;;;;;;5005861;28;20528;-61
2023/05/06 02:42:41;;;;;;;6.65;3.35;;;;;;;;;;5008362;28;20074;-61
2023/05/06 02:45:07;;;;;;;4.80;3.08;;;;;;;;;;5008272;28;20062;-61
2023/05/06 02:47:34;;;;;;;4.30;3.05;;;;;;;;;;5011641;28;20078;-61
2023/05/06 02:50:00;;;;;;;7.72;3.70;;;;;;;;;;5026880;28;20080;-61
2023/05/06 02:52:26;;;;;;;7.90;3.38;;;;;;;;;;5006149;28;20076;-61
2023/05/06 02:54:52;;;;;;;5.35;4.00;;;;;;;;;;5010427;28;20125;-61
2023/05/06 02:57:18;;;;;;;7.97;3.58;;;;;;;;;;5004828;28;20729;-61
2023/05/06 02:59:44;;;;;;;6.75;3.38;;;;;;;;;;5007211;28;20034;-59
2023/05/06 03:02:10;;;;;;;7.38;2.85;;;;;;;;;;5003992;28;20046;-58
2023/05/06 03:04:36;;;;;;;4.80;3.10;;;;;;;;;;5009348;28;20540;-59
2023/05/06 03:07:02;;;;;;;8.55;3.03;;;;;;;;;;5010577;28;20049;-58
2023/05/06 03:09:28;;;;;;;4.28;2.70;;;;;;;;;;5028004;28;22167;-59
2023/05/06 03:11:56;;;;;;;6.28;2.70;;;;;;;;;;5009559;28;20130;-58
2023/05/06 03:14:22;;;;;;;6.25;3.33;;;;;;;;;;5009833;28;20128;-58
2023/05/06 03:16:48;;;;;;;5.22;3.08;;;;;;;;;;5009678;28;20041;-58
2023/05/06 03:19:14;;;;;;;4.55;2.67;;;;;;;;;;5008207;28;20594;-58
2023/05/06 03:21:40;;;;;;;5.00;3.00;;;;;;;;;;5007507;28;20153;-58
2023/05/06 03:24:06;;;;;;;5.40;2.90;;;;;;;;;;5011553;28;20145;-58
2023/05/06 03:26:32;;;;;;;4.43;2.65;;;;;;;;;;5040332;28;20159;-59
2023/05/06 03:28:58;;;;;;;6.40;3.65;;;;;;;;;;5010845;28;20083;-58
2023/05/06 03:31:24;;;;;;;6.55;3.63;;;;;;;;;;5011199;28;20125;-59
2023/05/06 03:33:50;;;;;;;4.13;2.55;;;;;;;;;;5010751;28;20054;-58
2023/05/06 03:36:16;;;;;;;5.03;3.15;;;;;;;;;;5010127;28;20041;-58
2023/05/06 03:38:43;;;;;;;9.30;3.47;;;;;;;;;;5009528;28;20034;-59
2023/05/06 03:41:09;;;;;;;5.03;2.88;;;;;;;;;;5010140;28;21378;-59
2023/05/06 03:43:36;;;;;;;4.55;3.20;;;;;;;;;;5009349;28;20070;-58
2023/05/06 03:46:02;;;;;;;6.95;3.50;;;;;;;;;;5005943;28;20033;-59
2023/05/06 03:48:28;;;;;;;5.53;2.83;;;;;;;;;;5008385;28;20104;-59
2023/05/06 03:50:54;;;;;;;5.15;2.70;;;;;;;;;;5003917;28;20042;-59
2023/05/06 03:53:20;;;;;;;4.28;2.70;;;;;;;;;;5005287;28;21696;-59
2023/05/06 03:55:47;;;;;;;6.68;3.50;;;;;;;;;;5008533;28;20582;-59
2023/05/06 03:58:13;;;;;;;6.18;2.97;;;;;;;;;;5007531;28;20057;-59
2023/05/06 04:00:39;;;;;;;4.53;2.90;;;;;;;;;;5005640;28;20530;-59
2023/05/06 04:03:05;;;;;;;5.63;2.47;;;;;;;;;;5008067;28;20042;-59
2023/05/06 04:05:31;;;;;;;4.47;2.60;;;;;;;;;;5034993;28;20555;-59
2023/05/06 04:07:57;;;;;;;5.95;2.65;;;;;;;;;;5006521;28;20041;-59
2023/05/06 04:10:23;;;;;;;4.35;2.50;;;;;;;;;;5002650;28;20066;-59
2023/05/06 04:12:49;;;;;;;4.97;3.20;;;;;;;;;;5005316;28;20089;-59
2023/05/06 04:15:15;;;;;;;6.22;2.85;;;;;;;;;;4998120;28;20072;-59
2023/05/06 04:17:41;;;;;;;4.55;3.25;;;;;;;;;;5004197;28;20137;-59
2023/05/06 04:20:10;;;;;;;7.45;3.35;;;;;;;;;;5005348;28;20045;-59
2023/05/06 04:22:37;;;;;;;4.53;3.17;;;;;;;;;;5003728;28;20042;-59
2023/05/06 04:25:03;;;;;;;4.63;3.10;;;;;;;;;;5005916;28;20046;-59
2023/05/06 04:27:30;;;;;;;6.07;3.38;;;;;;;;;;5009354;28;20045;-59
2023/05/06 04:29:57;;;;;;;5.85;2.97;;;;;;;;;;5007338;28;20041;-59
2023/05/06 04:32:24;;;;;;;11.18;3.55;;;;;;;;;;5008329;28;20042;-59
2023/05/06 04:34:50;;;;;;;7.63;3.95;;;;;;;;;;5009959;28;20049;-59
2023/05/06 04:37:20;;;;;;;4.85;3.10;;;;;;;;;;5014108;28;20045;-59
2023/05/06 04:39:46;;;;;;;8.25;4.20;;;;;;;;;;5015023;28;20053;-59
2023/05/06 04:42:13;;;;;;;6.85;3.83;;;;;;;;;;5012011;28;20572;-59
2023/05/06 04:44:40;;;;;;;6.07;3.90;;;;;;;;;;5009911;28;20987;-59
2023/05/06 04:47:06;;;;;;;5.57;3.55;;;;;;;;;;5012284;28;20058;-59
2023/05/06 04:49:32;;;;;;;9.90;3.83;;;;;;;;;;5009946;28;20045;-59
2023/05/06 04:51:58;;;;;;;6.20;3.78;;;;;;;;;;5010572;28;20080;-59
2023/05/06 04:54:24;;;;;;;6.40;4.95;;;;;;;;;;5006459;28;20451;-59
2023/05/06 04:56:50;;;;;;;7.45;3.50;;;;;;;;;;5014572;28;20069;-59
2023/05/06 04:59:16;;;;;;;6.43;4.22;;;;;;;;;;5005084;28;20042;-58
2023/05/06 05:01:42;;;;;;;7.30;3.75;;;;;;;;;;5003414;28;20108;-59
2023/05/06 05:04:08;;;;;;;7.35;3.80;;;;;;;;;;5012595;28;20532;-58
2023/05/06 05:06:35;;;;;;;6.57;3.95;;;;;;;;;;5014089;28;20034;-59
2023/05/06 05:09:01;;;;;;;5.82;4.10;;;;;;;;;;5010852;28;20045;-59
2023/05/06 05:11:27;;;;;;;6.93;3.63;;;;;;;;;;5010233;28;20576;-59
2023/05/06 05:13:53;;;;;;;7.95;3.10;;;;;;;;;;5010355;28;20073;-58
2023/05/06 05:16:19;;;;;;;5.50;3.30;;;;;;;;;;5009042;28;21709;-59
2023/05/06 05:18:45;;;;;;;6.53;3.40;;;;;;;;;;5011087;28;20046;-58
2023/05/06 05:21:12;;;;;;;5.57;4.28;;;;;;;;;;5012384;28;20429;-59
2023/05/06 05:23:38;;;;;;;5.35;3.63;;;;;;;;;;5008218;28;20081;-58
2023/05/06 05:26:04;;;;;;;6.50;3.97;;;;;;;;;;5010799;28;20049;-58
2023/05/06 05:28:31;;;;;;;11.15;4.53;;;;;;;;;;5003711;28;20057;-58
2023/05/06 05:31:05;;;;;;;9.20;4.20;;;;;;;;;;5006577;28;20129;-59
2023/05/06 05:33:32;;;;;;;9.77;4.72;;;;;;;;;;5008155;28;20069;-58
2023/05/06 05:35:58;;;;;;;6.88;4.03;;;;;;;;;;5011081;28;20052;-58
2023/05/06 05:38:24;;;;;;;7.65;4.13;;;;;;;;;;5010856;28;20099;-59
2023/05/06 05:40:50;;;;;;;12.52;3.75;;;;;;;;;;5025133;28;20049;-58
2023/05/06 05:43:16;;;;;;;6.93;3.42;;;;;;;;;;5010111;28;20045;-59
2023/05/06 05:45:42;;;;;;;7.50;4.43;;;;;;;;;;5011055;28;20317;-59
2023/05/06 05:48:08;;;;;;;5.85;4.20;;;;;;;;;;5006053;28;20073;-59
2023/05/06 05:50:34;;;;;;;8.93;3.75;;;;;;;;;;5004704;28;20050;-58
2023/05/06 05:53:01;;;;;;;11.20;4.20;;;;;;;;;;5008980;28;20045;-58
2023/05/06 05:55:28;;;;;;;10.02;3.72;;;;;;;;;;5008957;28;20058;-59
2023/05/06 05:57:54;;;;;;;5.13;3.70;;;;;;;;;;5012885;28;20523;-59
2023/05/06 06:00:20;;;;;;;8.02;3.95;;;;;;;;;;5004910;28;20759;-59
2023/05/06 06:02:46;;;;;;;8.13;3.78;;;;;;;;;;5009271;28;20042;-58
2023/05/06 06:05:13;;;;;;;6.50;4.05;;;;;;;;;;5006775;28;20073;-59
2023/05/06 06:07:39;;;;;;;10.40;4.28;;;;;;;;;;5003164;28;20488;-58
2023/05/06 06:10:06;;;;;;;8.23;4.32;;;;;;;;;;5007011;28;20465;-59
2023/05/06 06:12:32;;;;;;;8.13;3.80;;;;;;;;;;5007801;28;20840;-59
2023/05/06 06:14:58;;;;;;;7.88;3.88;;;;;;;;;;5010084;28;20637;-59
2023/05/06 06:17:24;;;;;;;11.30;5.28;;;;;;;;;;5004049;28;20038;-59
2023/05/06 06:19:50;;;;;;;10.15;4.97;;;;;;;;;;5008840;28;20045;-59
2023/05/06 06:22:16;;;;;;;7.43;4.15;;;;;;;;;;5004376;28;20047;-58
2023/05/06 06:24:42;;;;;;;8.10;3.60;;;;;;;;;;5007925;28;20042;-58
2023/05/06 06:27:09;;;;;;;7.38;3.03;;;;;;;;;;5012003;28;20041;-59
2023/05/06 06:29:35;;;;;;;9.50;4.70;;;;;;;;;;5010760;28;20050;-58
2023/05/06 06:32:02;;;;;;;10.40;4.20;;;;;;;;;;5013034;28;20550;-58
2023/05/06 06:34:28;;;;;;;9.70;3.60;;;;;;;;;;5006305;28;20115;-58
2023/05/06 06:36:54;;;;;;;11.50;3.97;;;;;;;;;;5009974;28;20554;-58
2023/05/06 06:39:20;;;;;;;7.65;3.92;;;;;;;;;;5007995;28;20051;-58
2023/05/06 06:41:46;;;;;;;8.07;4.13;;;;;;;;;;5007634;28;20049;-58
2023/05/06 06:44:12;;;;;;;6.10;3.35;;;;;;;;;;5008722;28;20111;-58
2023/05/06 06:46:38;;;;;;;7.28;3.55;;;;;;;;;;5035303;28;20038;-58
2023/05/06 06:49:04;;;;;;;10.48;4.70;;;;;;;;;;5007260;28;20046;-58
2023/05/06 06:51:31;;;;;;;6.25;3.25;;;;;;;;;;5009638;28;20476;-58
2023/05/06 06:53:57;;;;;;;8.52;3.60;;;;;;;;;;5014071;28;20570;-58
2023/05/06 06:56:23;;;;;;;8.75;3.97;;;;;;;;;;5014007;28;20046;-58
2023/05/06 06:58:49;;;;;;;8.27;3.58;;;;;;;;;;5010927;28;20465;-58
2023/05/06 07:01:15;;;;;;;4.70;3.03;;;;;;;;;;5011533;28;20037;-58
2023/05/06 07:03:41;;;;;;;9.57;3.83;;;;;;;;;;5010032;28;20045;-58
2023/05/06 07:06:08;;;;;;;5.78;3.30;;;;;;;;;;5027874;28;20045;-58
2023/05/06 07:08:34;;;;;;;9.38;4.05;;;;;;;;;;5007875;28;20050;-59
2023/05/06 07:11:00;;;;;;;7.55;3.83;;;;;;;;;;5010396;28;20479;-58
2023/05/06 07:13:26;;;;;;;6.38;3.90;;;;;;;;;;5022253;28;20046;-58
2023/05/06 07:15:52;;;;;;;9.95;4.93;;;;;;;;;;5008365;28;20580;-58
2023/05/06 07:18:19;;;;;;;7.28;3.47;;;;;;;;;;5008412;28;20440;-59
2023/05/06 07:20:45;;;;;;;9.65;3.80;;;;;;;;;;5017306;28;20128;-58
2023/05/06 07:23:11;;;;;;;6.38;3.85;;;;;;;;;;5012392;28;20070;-62
2023/05/06 07:25:38;;;;;;;11.77;3.45;;;;;;;;;;5003702;28;21778;-58
2023/05/06 07:28:04;;;;;;;5.43;3.20;;;;;;;;;;5007978;28;20050;-58
2023/05/06 07:30:30;;;;;;;8.10;3.55;;;;;;;;;;5025727;28;20457;-58
2023/05/06 07:32:56;;;;;;;8.77;3.75;;;;;;;;;;5012409;28;20128;-58
2023/05/06 07:35:22;;;;;;;9.30;4.40;;;;;;;;;;5011709;28;20577;-58
2023/05/06 07:37:49;;;;;;;5.65;3.15;;;;;;;;;;5011153;28;20607;-58
2023/05/06 07:40:15;;;;;;;5.53;3.25;;;;;;;;;;5012185;28;20046;-58
2023/05/06 07:42:41;;;;;;;6.90;3.05;;;;;;;;;;5010575;28;20104;-59
2023/05/06 07:45:08;;;;;;;5.80;2.83;;;;;;;;;;5010619;28;20139;-58
2023/05/06 07:47:35;;;;;;;11.35;4.10;;;;;;;;;;5011363;28;20566;-58
2023/05/06 07:50:01;;;;;;;5.22;3.50;;;;;;;;;;5012715;28;20077;-58
2023/05/06 07:52:27;;;;;;;8.38;3.30;;;;;;;;;;5005986;28;20444;-59
2023/05/06 07:54:54;;;;;;;6.95;3.67;;;;;;;;;;5006140;28;20548;-58
2023/05/06 07:57:20;;;;;;;7.13;3.40;;;;;;;;;;5008797;28;20065;-58
2023/05/06 07:59:49;;;;;;;7.13;3.38;;;;;;;;;;5008808;28;20050;-58
2023/05/06 08:02:16;;;;;;;7.05;3.13;;;;;;;;;;5010276;28;20041;-58
2023/05/06 08:04:42;;;;;;;8.75;3.72;;;;;;;;;;5010798;28;20138;-59
2023/05/06 08:07:08;;;;;;;10.02;3.80;;;;;;;;;;5008643;28;20054;-58
2023/05/06 08:09:34;;;;;;;5.55;3.75;;;;;;;;;;5001597;28;20093;-59
2023/05/06 08:12:00;;;;;;;7.32;3.53;;;;;;;;;;5008613;28;20042;-57
2023/05/06 08:14:26;;;;;;;12.77;3.58;;;;;;;;;;5008424;28;20037;-58
2023/05/06 08:16:53;;;;;;;9.88;3.55;;;;;;;;;;5006199;28;20042;-58
2023/05/06 08:19:20;;;;;;;12.57;3.50;;;;;;;;;;5014199;28;20572;-58
2023/05/06 08:21:46;;;;;;;6.55;2.63;;;;;;;;;;5008759;28;20042;-58
2023/05/06 08:24:12;;;;;;;5.82;2.55;;;;;;;;;;5015339;28;20033;-58
2023/05/06 08:26:39;;;;;;;10.35;3.95;;;;;;;;;;5008746;28;20046;-58
2023/05/06 08:29:06;;;;;;;9.23;3.25;;;;;;;;;;5046101;28;20567;-58
2023/05/06 08:31:33;;;;;;;9.93;3.05;;;;;;;;;;5007029;28;20075;-58
2023/05/06 08:33:59;;;;;;;6.32;2.97;;;;;;;;;;5012076;28;20132;-58
2023/05/06 08:36:26;;;;;;;10.63;2.47;;;;;;;;;;5009775;28;20050;-58
2023/05/06 08:38:52;;;;;;;11.95;3.80;;;;;;;;;;5009501;28;20054;-58
2023/05/06 08:41:20;;;;;;;6.43;2.95;;;;;;;;;;5006955;28;20107;-58
2023/05/06 08:43:47;;;;;;;6.15;3.33;;;;;;;;;;5014069;28;20069;-58
2023/05/06 08:46:13;;;;;;;7.80;2.85;;;;;;;;;;5013621;28;20073;-58
2023/05/06 08:48:39;;;;;;;11.38;3.08;;;;;;;;;;5010089;28;20157;-58
2023/05/06 08:51:06;;;;;;;6.10;2.78;;;;;;;;;;5009817;28;20576;-58
2023/05/06 08:53:35;;;;;;;6.93;2.92;;;;;;;;;;5017242;28;20034;-58
2023/05/06 08:56:05;;;;;;;4.50;2.45;;;;;;;;;;5033341;28;20044;-58
2023/05/06 08:58:34;;;;;;;6.95;2.53;;;;;;;;;;5014104;28;20108;-58
2023/05/06 09:01:02;;;;;;;7.30;2.35;;;;;;;;;;5017415;28;20136;-58
2023/05/06 09:03:28;;;;;;;5.60;2.60;;;;;;;;;;5016267;28;20161;-58
2023/05/06 09:05:55;;;;;;;6.65;2.65;;;;;;;;;;5015540;28;20053;-58
2023/05/06 09:08:21;;;;;;;8.65;2.58;;;;;;;;;;5017104;28;20085;-57
2023/05/06 09:10:47;;;;;;;7.53;2.53;;;;;;;;;;5017242;28;20512;-58
2023/05/06 09:13:14;;;;;;;10.10;3.50;;;;;;;;;;5016827;28;20034;-59
2023/05/06 09:15:41;;;;;;;5.63;2.55;;;;;;;;;;5015816;28;20057;-58
2023/05/06 09:18:07;;;;;;;4.60;2.33;;;;;;;;;;5017155;28;20041;-58
2023/05/06 09:20:34;;;;;;;9.07;2.38;;;;;;;;;;5016779;28;20045;-58
2023/05/06 09:23:00;;;;;;;7.65;1.95;;;;;;;;;;5021416;28;20100;-58
2023/05/06 09:25:26;;;;;;;7.05;2.90;;;;;;;;;;5016172;28;20057;-58
2023/05/06 09:28:02;;;;;;;8.65;2.55;;;;;;;;;;5012512;28;20046;-58
2023/05/06 09:30:29;;;;;;;8.45;3.45;;;;;;;;;;5011640;28;20042;-58
2023/05/06 09:32:55;;;;;;;5.20;2.00;;;;;;;;;;5017874;28;20069;-58
2023/05/06 09:35:21;;;;;;;4.47;1.95;;;;;;;;;;5017565;28;20101;-59
2023/05/06 09:37:47;;;;;;;8.57;3.17;;;;;;;;;;5017811;28;20555;-59
2023/05/06 09:40:13;;;;;;;8.02;2.50;;;;;;;;;;5012882;28;21111;-59
2023/05/06 09:42:39;;;;;;;9.32;3.05;;;;;;;;;;5011619;28;20042;-59
2023/05/06 09:45:07;;;;;;;7.93;1.90;;;;;;;;;;5014275;28;20129;-59
2023/05/06 09:47:34;;;;;;;6.78;1.88;;;;;;;;;;5015078;28;20042;-59
2023/05/06 09:50:01;;;;;;;5.10;2.78;;;;;;;;;;5006741;28;20049;-59
2023/05/06 09:52:27;;;;;;;7.55;1.80;;;;;;;;;;5016514;28;20045;-59
2023/05/06 09:54:54;;;;;;;6.10;2.15;;;;;;;;;;5010028;28;20046;-58
2023/05/06 09:57:21;;;;;;;5.95;1.92;;;;;;;;;;5015706;28;20049;-59
2023/05/06 09:59:47;;;;;;;3.75;1.60;;;;;;;;;;5013252;28;20046;-59
2023/05/06 10:02:14;;;;;;;5.97;1.77;;;;;;;;;;5008713;28;20049;-59
2023/05/06 10:04:44;;;;;;;6.55;1.77;;;;;;;;;;5013581;28;20088;-59
2023/05/06 10:07:14;;;;;;;5.90;1.90;;;;;;;;;;5010428;28;20052;-59
2023/05/06 10:09:40;;;;;;;7.60;2.40;;;;;;;;;;5006264;28;20110;-59
2023/05/06 10:12:10;;;;;;;8.85;2.50;;;;;;;;;;5042987;28;20042;-59
2023/05/06 10:14:36;;;;;;;7.63;1.92;;;;;;;;;;5012801;28;20125;-59
2023/05/06 10:17:06;;;;;;;4.68;2.20;;;;;;;;;;5005500;28;20089;-59
2023/05/06 10:19:33;;;;;;;6.53;2.38;;;;;;;;;;5014282;28;20157;-59
2023/05/06 10:22:13;;;;;;;5.75;2.25;;;;;;;;;;5012884;28;20057;-59
2023/05/06 10:24:52;;;;;;;3.90;2.00;;;;;;;;;;5013900;28;20070;-58
2023/05/06 10:27:18;;;;;;;8.00;1.70;;;;;;;;;;5013240;28;20046;-59
2023/05/06 10:29:44;;;;;;;3.28;1.55;;;;;;;;;;5015218;28;20061;-58
2023/05/06 10:32:11;;;;;;;3.78;1.73;;;;;;;;;;5013716;28;20038;-59
2023/05/06 10:34:40;;;;;;;5.43;1.75;;;;;;;;;;5006623;28;20096;-59
2023/05/06 10:37:06;;;;;;;4.18;1.38;;;;;;;;;;5015159;28;20041;-58
2023/05/06 10:39:33;;;;;;;5.63;2.53;;;;;;;;;;5014661;28;20144;-59
2023/05/06 10:42:00;;;;;;;5.25;2.15;;;;;;;;;;5016216;28;20103;-59
2023/05/06 10:44:45;;;;;;;8.23;2.72;;;;;;;;;;5015054;28;20092;-59
2023/05/06 10:47:11;;;;;;;5.80;1.42;;;;;;;;;;5014940;28;20092;-59
2023/05/06 10:49:37;;;;;;;3.13;1.60;;;;;;;;;;5012022;28;20038;-59
2023/05/06 10:52:11;;;;;;;5.18;1.75;;;;;;;;;;5014704;28;20096;-59
2023/05/06 10:54:49;;;;;;;3.75;1.77;;;;;;;;;;5014419;28;20178;-59
2023/05/06 10:57:15;;;;;;;5.45;2.60;;;;;;;;;;5015257;28;20947;-58
2023/05/06 10:59:45;;;;;;;5.32;1.92;;;;;;;;;;5014858;28;20540;-59
2023/05/06 11:02:12;;;;;;;5.63;1.48;;;;;;;;;;5045590;28;20061;-59
2023/05/06 11:04:38;;;;;;;4.90;1.77;;;;;;;;;;5006374;28;20069;-59
2023/05/06 11:07:09;;;;;;;4.65;1.30;;;;;;;;;;5011718;28;20128;-58
2023/05/06 11:09:52;;;;;;;5.03;1.87;;;;;;;;;;5012767;28;20042;-59
2023/05/06 11:12:20;;;;;;;6.72;1.50;;;;;;;;;;5010430;28;20629;-59
2023/05/06 11:14:46;;;;;;;8.00;2.20;;;;;;;;;;5014429;28;20092;-59
2023/05/06 11:17:31;;;;;;;6.72;2.10;;;;;;;;;;5013529;28;20204;-59
2023/05/06 11:20:16;;;;;;;3.42;1.52;;;;;;;;;;5009733;28;20050;-60
2023/05/06 11:22:42;;;;;;;7.35;1.52;;;;;;;;;;5040511;28;20547;-59
2023/05/06 11:25:08;;;;;;;7.55;2.13;;;;;;;;;;5012934;28;20038;-59
2023/05/06 11:27:35;;;;;;;5.35;1.42;;;;;;;;;;5015394;28;20496;-59
2023/05/06 11:30:01;;;;;;;7.50;1.80;;;;;;;;;;5011488;28;20089;-59
2023/05/06 11:32:28;;;;;;;4.60;1.67;;;;;;;;;;5011768;28;20117;-58
2023/05/06 11:34:55;;;;;;;7.20;2.55;;;;;;;;;;5013525;28;20878;-58
2023/05/06 11:37:28;;;;;;;5.55;2.17;;;;;;;;;;5012663;28;20524;-58
2023/05/06 11:39:54;;;;;;;3.67;1.25;;;;;;;;;;5012527;28;20042;-58
2023/05/06 11:42:24;;;;;;;4.80;1.25;;;;;;;;;;5010927;28;20045;-59
2023/05/06 11:44:53;;;;;;;4.68;1.85;;;;;;;;;;5012277;28;20058;-59
2023/05/06 11:47:21;;;;;;;4.05;1.48;;;;;;;;;;5010308;28;20532;-58
2023/05/06 11:49:50;;;;;;;3.17;1.25;;;;;;;;;;5011380;28;20069;-59
2023/05/06 11:52:18;;;;;;;4.45;1.40;;;;;;;;;;5004691;28;20064;-60
2023/05/06 11:54:44;;;;;;;5.45;1.40;;;;;;;;;;5008646;28;20038;-58
2023/05/06 11:57:11;;;;;;;3.03;1.10;;;;;;;;;;5007899;28;20105;-59
2023/05/06 11:59:38;;;;;;;3.85;1.33;;;;;;;;;;5011809;28;20073;-58
2023/05/06 12:02:12;;;;;;;6.43;1.30;;;;;;;;;;5025544;28;20555;-59
2023/05/06 12:04:46;;;;;;;4.00;1.45;;;;;;;;;;5012968;28;20518;-59
2023/05/06 12:07:13;;;;;;;2.42;1.10;;;;;;;;;;5007951;28;20668;-58
2023/05/06 12:09:40;;;;;;;2.60;1.20;;;;;;;;;;5008921;28;20038;-58
2023/05/06 12:12:07;;;;;;;1.50;0.98;;;;;;;;;;5004871;28;20810;-58
2023/05/06 12:14:33;;;;;;;2.05;1.20;;;;;;;;;;5041481;28;20076;-58
2023/05/06 12:16:59;;;;;;;5.47;1.88;;;;;;;;;;5010315;28;20598;-58
2023/05/06 12:19:26;;;;;;;2.25;1.23;;;;;;;;;;5012378;28;20041;-58
2023/05/06 12:21:52;;;;;;;2.85;1.13;;;;;;;;;;5015027;28;20042;-58
2023/05/06 12:24:27;;;;;;;2.15;1.60;;;;;;;;;;5013715;28;20042;-58
2023/05/06 12:26:54;;;;;;;4.30;1.88;;;;;;;;;;5008476;28;20611;-58
2023/05/06 12:29:20;;;;;;;1.95;1.15;;;;;;;;;;5008531;28;20089;-58
2023/05/06 12:31:47;;;;;;;5.53;2.35;;;;;;;;;;5010883;28;20050;-58
2023/05/06 12:34:15;;;;;;;3.33;1.02;;;;;;;;;;5013066;28;20046;-58
2023/05/06 12:36:46;;;;;;;2.83;1.42;;;;;;;;;;5028989;28;20049;-58
2023/05/06 12:39:13;;;;;;;6.28;4.25;;;;;;;;;;5014180;28;20062;-58
2023/05/06 12:41:40;;;;;;;3.40;2.05;;;;;;;;;;5012502;28;20902;-58
2023/05/06 12:44:35;;;;;;;6.03;2.00;;;;;;;;;;5013764;28;20058;-58
2023/05/06 12:47:03;;;;;;;9.85;5.78;;;;;;;;;;5011220;28;20054;-58
2023/05/06 12:49:46;;;;;;;8.63;3.38;;;;;;;;;;5011708;28;20042;-58
2023/05/06 12:52:12;;;;;;;3.90;2.08;;;;;;;;;;5028504;28;20074;-58
2023/05/06 12:54:38;;;;;;;4.15;2.70;;;;;;;;;;5009467;28;20088;-58
2023/05/06 12:57:05;;;;;;;3.85;2.22;;;;;;;;;;5016841;28;20547;-58
2023/05/06 12:59:31;;;;;;;5.82;2.30;;;;;;;;;;5015872;28;20440;-58
2023/05/06 13:01:58;;;;;;;4.63;1.67;;;;;;;;;;5014556;28;20065;-58
2023/05/06 13:04:24;;;;;;;2.58;1.40;;;;;;;;;;5013241;28;20133;-58
2023/05/06 13:06:50;;;;;;;1.98;1.20;;;;;;;;;;5015342;28;20050;-58
2023/05/06 13:09:17;;;;;;;2.53;1.45;;;;;;;;;;5015515;28;20046;-59
2023/05/06 13:11:43;;;;;;;5.22;1.67;;;;;;;;;;5013796;28;20042;-58
2023/05/06 13:14:09;;;;;;;3.00;1.10;;;;;;;;;;5013589;28;20087;-58
2023/05/06 13:16:36;;;;;;;4.35;1.70;;;;;;;;;;5011396;28;20152;-58
2023/05/06 13:19:03;;;;;;;6.05;1.58;;;;;;;;;;5011779;28;20043;-58
2023/05/06 13:21:30;;;;;;;3.95;1.38;;;;;;;;;;5013474;28;20133;-58
2023/05/06 13:23:57;;;;;;;4.43;2.17;;;;;;;;;;5015862;28;20061;-58
2023/05/06 13:26:23;;;;;;;3.70;1.30;;;;;;;;;;5029592;28;20052;-58
2023/05/06 13:28:50;;;;;;;5.72;2.08;;;;;;;;;;5013396;28;20034;-58
2023/05/06 13:31:16;;;;;;;2.88;1.40;;;;;;;;;;5015304;28;20077;-58
2023/05/06 13:33:42;;;;;;;8.40;1.92;;;;;;;;;;5014190;28;20046;-58
2023/05/06 13:36:08;;;;;;;4.60;3.25;;;;;;;;;;5016625;28;20077;-58
2023/05/06 13:38:34;;;;;;;5.13;2.17;;;;;;;;;;5015810;28;20038;-58
2023/05/06 13:41:00;;;;;;;3.40;1.35;;;;;;;;;;5046472;28;20054;-58
2023/05/06 13:43:26;;;;;;;4.43;1.25;;;;;;;;;;5016833;28;20057;-58
2023/05/06 13:45:53;;;;;;;7.22;1.58;;;;;;;;;;5014651;28;20046;-58
2023/05/06 13:48:19;;;;;;;2.42;1.27;;;;;;;;;;5016592;28;20061;-58
2023/05/06 13:50:46;;;;;;;3.63;1.60;;;;;;;;;;5014764;28;20034;-58
2023/05/06 13:53:13;;;;;;;3.88;0.82;;;;;;;;;;5009672;28;20088;-58
2023/05/06 13:55:39;;;;;;;2.60;1.58;;;;;;;;;;5015008;28;20042;-58
2023/05/06 13:58:06;;;;;;;4.00;1.80;;;;;;;;;;5015193;28;20034;-58
2023/05/06 14:00:33;;;;;;;4.82;2.15;;;;;;;;;;5016671;28;20088;-59
2023/05/06 14:02:59;;;;;;;2.72;1.45;;;;;;;;;;5015420;28;20048;-58
2023/05/06 14:05:25;;;;;;;2.92;1.42;;;;;;;;;;5015621;28;20052;-58
2023/05/06 14:07:52;;;;;;;3.88;1.65;;;;;;;;;;5013907;28;20485;-58
2023/05/06 14:10:18;;;;;;;2.15;1.15;;;;;;;;;;5014720;28;20050;-58
2023/05/06 14:12:45;;;;;;;7.75;1.45;;;;;;;;;;5016483;28;20129;-58
2023/05/06 14:15:13;;;;;;;2.50;1.10;;;;;;;;;;5015348;28;20064;-59
2023/05/06 14:17:40;;;;;;;1.90;1.20;;;;;;;;;;5015964;28;20137;-58
2023/05/06 14:20:07;;;;;;;4.05;1.45;;;;;;;;;;5015587;28;20128;-58
2023/05/06 14:22:33;;;;;;;4.10;1.40;;;;;;;;;;5015473;28;20132;-58
2023/05/06 14:24:59;;;;;;;5.28;1.60;;;;;;;;;;5015318;28;20566;-58
2023/05/06 14:27:26;;;;;;;2.90;1.13;;;;;;;;;;5017188;28;20086;-58
2023/05/06 14:29:52;;;;;;;4.40;1.58;;;;;;;;;;5015916;28;20030;-58
2023/05/06 14:32:18;;;;;;;1.75;1.27;;;;;;;;;;5015382;28;20049;-58
2023/05/06 14:34:44;;;;;;;2.22;1.15;;;;;;;;;;5016003;28;20985;-59
2023/05/06 14:37:10;;;;;;;3.08;1.42;;;;;;;;;;5012999;28;20053;-58
2023/05/06 14:39:36;;;;;;;6.65;1.40;;;;;;;;;;5010125;28;20053;-58
2023/05/06 14:42:03;;;;;;;4.53;1.67;;;;;;;;;;5006254;28;20057;-58